sensor_id;sensor_type;location;lat;lon;timestamp;P1;durP1;ratioP1;P2;durP2;ratioP2
19593;SDS011;9944;48.240;16.478;2023-07-09T00:00:17;3.60;;;2.50;;
19593;SDS011;9944;48.240;16.478;2023-07-09T00:04:42;3.53;;;2.67;;
19593;SDS011;9944;48.240;16.478;2023-07-09T00:09:09;3.53;;;2.53;;
19593;SDS011;9944;48.240;16.478;2023-07-09T00:13:36;3.08;;;2.50;;
19593;SDS011;9944;48.240;16.478;2023-07-09T00:18:00;3.85;;;2.55;;
19593;SDS011;9944;48.240;16.478;2023-07-09T00:22:23;2.85;;;2.53;;
19593;SDS011;9944;48.240;16.478;2023-07-09T00:26:50;3.47;;;2.45;;
19593;SDS011;9944;48.240;16.478;2023-07-09T00:31:15;3.05;;;2.30;;
19593;SDS011;9944;48.240;16.478;2023-07-09T00:35:41;3.13;;;2.30;;
19593;SDS011;9944;48.240;16.478;2023-07-09T00:40:08;5.05;;;2.65;;
19593;SDS011;9944;48.240;16.478;2023-07-09T00:44:38;3.05;;;2.50;;
19593;SDS011;9944;48.240;16.478;2023-07-09T00:49:03;3.55;;;2.50;;
19593;SDS011;9944;48.240;16.478;2023-07-09T00:53:29;3.63;;;2.30;;
19593;SDS011;9944;48.240;16.478;2023-07-09T00:57:57;5.95;;;2.88;;
19593;SDS011;9944;48.240;16.478;2023-07-09T01:02:25;3.13;;;2.55;;
19593;SDS011;9944;48.240;16.478;2023-07-09T01:06:52;2.75;;;2.40;;
19593;SDS011;9944;48.240;16.478;2023-07-09T01:11:19;3.42;;;2.58;;
19593;SDS011;9944;48.240;16.478;2023-07-09T01:15:44;3.30;;;2.50;;
19593;SDS011;9944;48.240;16.478;2023-07-09T01:20:14;2.35;;;2.15;;
19593;SDS011;9944;48.240;16.478;2023-07-09T01:24:54;3.10;;;2.80;;
19593;SDS011;9944;48.240;16.478;2023-07-09T01:29:24;3.65;;;2.60;;
19593;SDS011;9944;48.240;16.478;2023-07-09T01:33:53;2.67;;;2.30;;
19593;SDS011;9944;48.240;16.478;2023-07-09T01:38:18;3.75;;;2.72;;
19593;SDS011;9944;48.240;16.478;2023-07-09T01:42:44;10.70;;;3.03;;
19593;SDS011;9944;48.240;16.478;2023-07-09T01:47:08;3.65;;;2.65;;
19593;SDS011;9944;48.240;16.478;2023-07-09T01:51:32;3.72;;;2.85;;
19593;SDS011;9944;48.240;16.478;2023-07-09T01:55:58;3.15;;;2.40;;
19593;SDS011;9944;48.240;16.478;2023-07-09T02:00:25;3.00;;;2.53;;
19593;SDS011;9944;48.240;16.478;2023-07-09T02:04:50;4.63;;;2.75;;
19593;SDS011;9944;48.240;16.478;2023-07-09T02:09:15;5.05;;;2.80;;
19593;SDS011;9944;48.240;16.478;2023-07-09T02:13:39;2.92;;;2.50;;
19593;SDS011;9944;48.240;16.478;2023-07-09T02:18:04;2.95;;;2.58;;
19593;SDS011;9944;48.240;16.478;2023-07-09T02:22:29;4.40;;;2.53;;
19593;SDS011;9944;48.240;16.478;2023-07-09T02:26:53;3.92;;;3.00;;
19593;SDS011;9944;48.240;16.478;2023-07-09T02:31:17;3.33;;;2.70;;
19593;SDS011;9944;48.240;16.478;2023-07-09T02:35:43;3.22;;;2.50;;
19593;SDS011;9944;48.240;16.478;2023-07-09T02:40:08;3.72;;;2.83;;
19593;SDS011;9944;48.240;16.478;2023-07-09T02:44:32;3.45;;;2.90;;
19593;SDS011;9944;48.240;16.478;2023-07-09T02:48:56;4.53;;;3.30;;
19593;SDS011;9944;48.240;16.478;2023-07-09T02:53:22;3.53;;;2.72;;
19593;SDS011;9944;48.240;16.478;2023-07-09T02:57:46;5.72;;;3.00;;
19593;SDS011;9944;48.240;16.478;2023-07-09T03:02:10;3.88;;;3.00;;
19593;SDS011;9944;48.240;16.478;2023-07-09T03:06:35;4.43;;;2.88;;
19593;SDS011;9944;48.240;16.478;2023-07-09T03:11:02;3.95;;;3.05;;
19593;SDS011;9944;48.240;16.478;2023-07-09T03:15:32;3.53;;;3.10;;
19593;SDS011;9944;48.240;16.478;2023-07-09T03:19:56;3.55;;;2.70;;
19593;SDS011;9944;48.240;16.478;2023-07-09T03:24:20;3.45;;;2.45;;
19593;SDS011;9944;48.240;16.478;2023-07-09T03:28:45;3.00;;;2.72;;
19593;SDS011;9944;48.240;16.478;2023-07-09T03:33:09;5.30;;;3.38;;
19593;SDS011;9944;48.240;16.478;2023-07-09T03:37:34;3.45;;;2.78;;
19593;SDS011;9944;48.240;16.478;2023-07-09T03:41:59;3.65;;;2.70;;
19593;SDS011;9944;48.240;16.478;2023-07-09T03:46:25;7.57;;;2.53;;
19593;SDS011;9944;48.240;16.478;2023-07-09T03:50:48;3.83;;;2.83;;
19593;SDS011;9944;48.240;16.478;2023-07-09T03:55:12;3.78;;;2.67;;
19593;SDS011;9944;48.240;16.478;2023-07-09T03:59:36;4.97;;;3.00;;
19593;SDS011;9944;48.240;16.478;2023-07-09T04:04:03;3.90;;;2.92;;
19593;SDS011;9944;48.240;16.478;2023-07-09T04:08:27;5.75;;;3.00;;
19593;SDS011;9944;48.240;16.478;2023-07-09T04:12:51;5.03;;;3.10;;
19593;SDS011;9944;48.240;16.478;2023-07-09T04:17:14;5.50;;;3.28;;
19593;SDS011;9944;48.240;16.478;2023-07-09T04:21:40;3.33;;;2.70;;
19593;SDS011;9944;48.240;16.478;2023-07-09T04:26:03;5.97;;;3.20;;
19593;SDS011;9944;48.240;16.478;2023-07-09T04:30:31;3.58;;;2.90;;
19593;SDS011;9944;48.240;16.478;2023-07-09T04:34:54;6.43;;;3.30;;
19593;SDS011;9944;48.240;16.478;2023-07-09T04:39:19;3.70;;;3.00;;
19593;SDS011;9944;48.240;16.478;2023-07-09T04:43:45;4.78;;;2.90;;
19593;SDS011;9944;48.240;16.478;2023-07-09T04:48:09;5.13;;;3.40;;
19593;SDS011;9944;48.240;16.478;2023-07-09T04:52:32;3.90;;;3.00;;
19593;SDS011;9944;48.240;16.478;2023-07-09T04:56:58;4.05;;;3.10;;
19593;SDS011;9944;48.240;16.478;2023-07-09T05:01:21;4.57;;;3.22;;
19593;SDS011;9944;48.240;16.478;2023-07-09T05:05:46;3.88;;;3.00;;
19593;SDS011;9944;48.240;16.478;2023-07-09T05:10:10;5.05;;;2.90;;
19593;SDS011;9944;48.240;16.478;2023-07-09T05:14:35;4.05;;;3.10;;
19593;SDS011;9944;48.240;16.478;2023-07-09T05:18:59;3.70;;;2.83;;
19593;SDS011;9944;48.240;16.478;2023-07-09T05:23:23;3.63;;;3.10;;
19593;SDS011;9944;48.240;16.478;2023-07-09T05:27:47;3.67;;;2.90;;
19593;SDS011;9944;48.240;16.478;2023-07-09T05:32:13;4.97;;;3.10;;
19593;SDS011;9944;48.240;16.478;2023-07-09T05:36:36;4.55;;;3.30;;
19593;SDS011;9944;48.240;16.478;2023-07-09T05:41:00;3.30;;;2.72;;
19593;SDS011;9944;48.240;16.478;2023-07-09T05:45:24;4.25;;;3.20;;
19593;SDS011;9944;48.240;16.478;2023-07-09T05:49:50;4.82;;;3.13;;
19593;SDS011;9944;48.240;16.478;2023-07-09T05:54:13;5.82;;;3.20;;
19593;SDS011;9944;48.240;16.478;2023-07-09T05:58:37;4.38;;;3.00;;
19593;SDS011;9944;48.240;16.478;2023-07-09T06:03:01;4.82;;;2.90;;
19593;SDS011;9944;48.240;16.478;2023-07-09T06:07:27;3.97;;;2.95;;
19593;SDS011;9944;48.240;16.478;2023-07-09T06:11:50;4.03;;;3.03;;
19593;SDS011;9944;48.240;16.478;2023-07-09T06:16:15;4.85;;;2.97;;
19593;SDS011;9944;48.240;16.478;2023-07-09T06:20:39;4.45;;;3.03;;
19593;SDS011;9944;48.240;16.478;2023-07-09T06:25:04;4.72;;;3.28;;
19593;SDS011;9944;48.240;16.478;2023-07-09T06:29:28;3.67;;;2.83;;
19593;SDS011;9944;48.240;16.478;2023-07-09T06:33:52;3.35;;;3.03;;
19593;SDS011;9944;48.240;16.478;2023-07-09T06:38:16;3.90;;;3.10;;
19593;SDS011;9944;48.240;16.478;2023-07-09T06:42:41;3.10;;;2.78;;
19593;SDS011;9944;48.240;16.478;2023-07-09T06:47:15;4.45;;;2.90;;
19593;SDS011;9944;48.240;16.478;2023-07-09T06:51:39;4.57;;;2.95;;
19593;SDS011;9944;48.240;16.478;2023-07-09T06:56:03;5.03;;;3.00;;
19593;SDS011;9944;48.240;16.478;2023-07-09T07:00:29;5.00;;;3.00;;
19593;SDS011;9944;48.240;16.478;2023-07-09T07:04:52;3.42;;;2.85;;
19593;SDS011;9944;48.240;16.478;2023-07-09T07:09:16;3.13;;;2.70;;
19593;SDS011;9944;48.240;16.478;2023-07-09T07:13:40;3.50;;;2.80;;
19593;SDS011;9944;48.240;16.478;2023-07-09T07:18:06;3.67;;;3.00;;
19593;SDS011;9944;48.240;16.478;2023-07-09T07:22:30;3.72;;;2.85;;
19593;SDS011;9944;48.240;16.478;2023-07-09T07:26:54;3.17;;;2.83;;
19593;SDS011;9944;48.240;16.478;2023-07-09T07:31:17;4.07;;;2.92;;
19593;SDS011;9944;48.240;16.478;2023-07-09T07:35:42;3.40;;;2.67;;
19593;SDS011;9944;48.240;16.478;2023-07-09T07:40:26;4.38;;;3.40;;
19593;SDS011;9944;48.240;16.478;2023-07-09T07:44:50;10.90;;;3.05;;
19593;SDS011;9944;48.240;16.478;2023-07-09T07:49:13;3.17;;;2.88;;
19593;SDS011;9944;48.240;16.478;2023-07-09T07:53:39;3.60;;;2.80;;
19593;SDS011;9944;48.240;16.478;2023-07-09T07:58:02;3.30;;;2.90;;
19593;SDS011;9944;48.240;16.478;2023-07-09T08:02:26;3.42;;;2.97;;
19593;SDS011;9944;48.240;16.478;2023-07-09T08:06:52;5.07;;;3.20;;
19593;SDS011;9944;48.240;16.478;2023-07-09T08:11:17;6.20;;;3.40;;
19593;SDS011;9944;48.240;16.478;2023-07-09T08:15:41;4.90;;;3.15;;
19593;SDS011;9944;48.240;16.478;2023-07-09T08:20:09;4.25;;;2.80;;
19593;SDS011;9944;48.240;16.478;2023-07-09T08:24:34;3.00;;;2.70;;
19593;SDS011;9944;48.240;16.478;2023-07-09T08:28:59;3.53;;;2.72;;
19593;SDS011;9944;48.240;16.478;2023-07-09T08:33:23;3.67;;;2.90;;
19593;SDS011;9944;48.240;16.478;2023-07-09T08:37:47;6.38;;;3.05;;
19593;SDS011;9944;48.240;16.478;2023-07-09T08:42:11;4.97;;;3.30;;
19593;SDS011;9944;48.240;16.478;2023-07-09T08:46:43;3.63;;;3.03;;
19593;SDS011;9944;48.240;16.478;2023-07-09T08:51:17;3.63;;;2.78;;
19593;SDS011;9944;48.240;16.478;2023-07-09T08:55:45;4.50;;;2.95;;
19593;SDS011;9944;48.240;16.478;2023-07-09T09:00:13;6.10;;;2.78;;
19593;SDS011;9944;48.240;16.478;2023-07-09T09:04:41;4.55;;;2.65;;
19593;SDS011;9944;48.240;16.478;2023-07-09T09:09:08;4.03;;;2.90;;
19593;SDS011;9944;48.240;16.478;2023-07-09T09:13:41;3.45;;;2.70;;
19593;SDS011;9944;48.240;16.478;2023-07-09T09:18:20;4.00;;;2.90;;
19593;SDS011;9944;48.240;16.478;2023-07-09T09:22:50;3.13;;;2.80;;
19593;SDS011;9944;48.240;16.478;2023-07-09T09:27:17;3.40;;;2.72;;
19593;SDS011;9944;48.240;16.478;2023-07-09T09:31:41;4.07;;;2.60;;
19593;SDS011;9944;48.240;16.478;2023-07-09T09:36:14;3.63;;;2.83;;
19593;SDS011;9944;48.240;16.478;2023-07-09T09:40:41;4.57;;;2.67;;
19593;SDS011;9944;48.240;16.478;2023-07-09T09:45:08;4.32;;;2.70;;
19593;SDS011;9944;48.240;16.478;2023-07-09T09:49:40;3.08;;;2.42;;
19593;SDS011;9944;48.240;16.478;2023-07-09T09:54:06;3.15;;;2.78;;
19593;SDS011;9944;48.240;16.478;2023-07-09T09:58:39;2.90;;;2.60;;
19593;SDS011;9944;48.240;16.478;2023-07-09T10:03:04;2.65;;;2.33;;
19593;SDS011;9944;48.240;16.478;2023-07-09T10:07:30;2.90;;;2.50;;
19593;SDS011;9944;48.240;16.478;2023-07-09T10:11:58;3.88;;;2.67;;
19593;SDS011;9944;48.240;16.478;2023-07-09T10:16:31;2.40;;;2.20;;
19593;SDS011;9944;48.240;16.478;2023-07-09T10:21:02;3.70;;;2.47;;
19593;SDS011;9944;48.240;16.478;2023-07-09T10:25:33;2.50;;;2.30;;
19593;SDS011;9944;48.240;16.478;2023-07-09T10:30:08;2.78;;;2.47;;
19593;SDS011;9944;48.240;16.478;2023-07-09T10:34:49;3.13;;;2.60;;
19593;SDS011;9944;48.240;16.478;2023-07-09T10:39:19;3.25;;;2.50;;
19593;SDS011;9944;48.240;16.478;2023-07-09T10:43:47;2.45;;;2.20;;
19593;SDS011;9944;48.240;16.478;2023-07-09T10:48:16;3.53;;;3.08;;
19593;SDS011;9944;48.240;16.478;2023-07-09T10:52:44;3.30;;;2.63;;
19593;SDS011;9944;48.240;16.478;2023-07-09T10:57:13;3.15;;;2.70;;
19593;SDS011;9944;48.240;16.478;2023-07-09T11:01:42;3.00;;;2.70;;
19593;SDS011;9944;48.240;16.478;2023-07-09T11:06:14;3.75;;;3.13;;
19593;SDS011;9944;48.240;16.478;2023-07-09T11:10:44;2.50;;;2.20;;
19593;SDS011;9944;48.240;16.478;2023-07-09T11:15:13;3.45;;;2.47;;
19593;SDS011;9944;48.240;16.478;2023-07-09T11:19:41;3.22;;;2.50;;
19593;SDS011;9944;48.240;16.478;2023-07-09T11:28:55;3.10;;;2.30;;
19593;SDS011;9944;48.240;16.478;2023-07-09T11:33:30;3.65;;;2.55;;
19593;SDS011;9944;48.240;16.478;2023-07-09T11:38:06;3.25;;;2.47;;
19593;SDS011;9944;48.240;16.478;2023-07-09T11:42:31;2.50;;;2.30;;
19593;SDS011;9944;48.240;16.478;2023-07-09T11:47:19;3.15;;;2.15;;
19593;SDS011;9944;48.240;16.478;2023-07-09T11:51:45;2.33;;;2.03;;
19593;SDS011;9944;48.240;16.478;2023-07-09T11:56:12;3.63;;;2.60;;
19593;SDS011;9944;48.240;16.478;2023-07-09T12:00:38;3.00;;;2.20;;
19593;SDS011;9944;48.240;16.478;2023-07-09T12:05:05;2.47;;;2.28;;
19593;SDS011;9944;48.240;16.478;2023-07-09T12:09:31;3.30;;;2.60;;
19593;SDS011;9944;48.240;16.478;2023-07-09T12:14:08;2.28;;;2.08;;
19593;SDS011;9944;48.240;16.478;2023-07-09T12:18:34;3.15;;;2.10;;
19593;SDS011;9944;48.240;16.478;2023-07-09T12:23:00;2.78;;;2.30;;
19593;SDS011;9944;48.240;16.478;2023-07-09T12:27:33;2.53;;;2.20;;
19593;SDS011;9944;48.240;16.478;2023-07-09T12:32:02;2.15;;;1.95;;
19593;SDS011;9944;48.240;16.478;2023-07-09T12:36:27;2.90;;;2.25;;
19593;SDS011;9944;48.240;16.478;2023-07-09T12:40:53;3.97;;;1.80;;
19593;SDS011;9944;48.240;16.478;2023-07-09T12:45:19;3.00;;;2.20;;
19593;SDS011;9944;48.240;16.478;2023-07-09T12:49:44;2.53;;;2.05;;
19593;SDS011;9944;48.240;16.478;2023-07-09T12:54:11;2.88;;;2.10;;
19593;SDS011;9944;48.240;16.478;2023-07-09T12:58:39;2.90;;;2.20;;
19593;SDS011;9944;48.240;16.478;2023-07-09T13:03:11;2.20;;;2.00;;
19593;SDS011;9944;48.240;16.478;2023-07-09T13:07:38;2.53;;;2.33;;
19593;SDS011;9944;48.240;16.478;2023-07-09T13:12:03;2.22;;;2.03;;
19593;SDS011;9944;48.240;16.478;2023-07-09T13:16:29;2.63;;;1.92;;
19593;SDS011;9944;48.240;16.478;2023-07-09T13:20:53;2.75;;;2.08;;
19593;SDS011;9944;48.240;16.478;2023-07-09T13:25:21;2.63;;;2.20;;
19593;SDS011;9944;48.240;16.478;2023-07-09T13:30:07;5.22;;;1.70;;
19593;SDS011;9944;48.240;16.478;2023-07-09T13:34:33;2.47;;;1.80;;
19593;SDS011;9944;48.240;16.478;2023-07-09T13:38:57;2.67;;;2.10;;
19593;SDS011;9944;48.240;16.478;2023-07-09T13:43:23;1.98;;;1.80;;
19593;SDS011;9944;48.240;16.478;2023-07-09T13:47:50;3.15;;;2.00;;
19593;SDS011;9944;48.240;16.478;2023-07-09T13:52:18;2.88;;;2.15;;
19593;SDS011;9944;48.240;16.478;2023-07-09T13:56:52;3.10;;;2.17;;
19593;SDS011;9944;48.240;16.478;2023-07-09T14:01:17;2.88;;;2.20;;
19593;SDS011;9944;48.240;16.478;2023-07-09T14:05:44;2.42;;;2.00;;
19593;SDS011;9944;48.240;16.478;2023-07-09T14:10:12;2.20;;;2.00;;
19593;SDS011;9944;48.240;16.478;2023-07-09T14:14:39;2.67;;;2.47;;
19593;SDS011;9944;48.240;16.478;2023-07-09T14:19:08;3.72;;;1.92;;
19593;SDS011;9944;48.240;16.478;2023-07-09T14:23:35;2.45;;;2.03;;
19593;SDS011;9944;48.240;16.478;2023-07-09T14:28:00;3.45;;;2.30;;
19593;SDS011;9944;48.240;16.478;2023-07-09T14:32:33;2.85;;;2.33;;
19593;SDS011;9944;48.240;16.478;2023-07-09T14:37:00;2.55;;;2.35;;
19593;SDS011;9944;48.240;16.478;2023-07-09T14:41:24;2.90;;;2.08;;
19593;SDS011;9944;48.240;16.478;2023-07-09T14:45:51;2.55;;;2.22;;
19593;SDS011;9944;48.240;16.478;2023-07-09T14:50:14;2.95;;;2.20;;
19593;SDS011;9944;48.240;16.478;2023-07-09T14:54:38;5.63;;;2.50;;
19593;SDS011;9944;48.240;16.478;2023-07-09T14:59:02;4.18;;;2.78;;
19593;SDS011;9944;48.240;16.478;2023-07-09T15:03:27;2.35;;;2.15;;
19593;SDS011;9944;48.240;16.478;2023-07-09T15:07:52;2.92;;;2.20;;
19593;SDS011;9944;48.240;16.478;2023-07-09T15:12:16;2.72;;;2.33;;
19593;SDS011;9944;48.240;16.478;2023-07-09T15:16:42;3.20;;;2.40;;
19593;SDS011;9944;48.240;16.478;2023-07-09T15:21:08;3.38;;;2.40;;
19593;SDS011;9944;48.240;16.478;2023-07-09T15:25:32;5.30;;;2.60;;
19593;SDS011;9944;48.240;16.478;2023-07-09T15:29:56;2.33;;;2.00;;
19593;SDS011;9944;48.240;16.478;2023-07-09T15:34:20;2.42;;;2.20;;
19593;SDS011;9944;48.240;16.478;2023-07-09T15:38:45;3.45;;;2.55;;
19593;SDS011;9944;48.240;16.478;2023-07-09T15:43:08;3.17;;;2.75;;
19593;SDS011;9944;48.240;16.478;2023-07-09T15:47:33;2.72;;;2.50;;
19593;SDS011;9944;48.240;16.478;2023-07-09T15:51:56;5.30;;;3.67;;
19593;SDS011;9944;48.240;16.478;2023-07-09T15:56:22;2.50;;;2.28;;
19593;SDS011;9944;48.240;16.478;2023-07-09T16:00:49;2.95;;;2.38;;
19593;SDS011;9944;48.240;16.478;2023-07-09T16:05:25;2.60;;;2.28;;
19593;SDS011;9944;48.240;16.478;2023-07-09T16:09:52;2.65;;;2.45;;
19593;SDS011;9944;48.240;16.478;2023-07-09T16:14:19;2.90;;;2.50;;
19593;SDS011;9944;48.240;16.478;2023-07-09T16:18:45;2.92;;;2.30;;
19593;SDS011;9944;48.240;16.478;2023-07-09T16:23:12;4.18;;;3.38;;
19593;SDS011;9944;48.240;16.478;2023-07-09T16:27:40;4.85;;;3.00;;
19593;SDS011;9944;48.240;16.478;2023-07-09T16:32:08;5.38;;;3.38;;
19593;SDS011;9944;48.240;16.478;2023-07-09T16:36:32;5.60;;;3.40;;
19593;SDS011;9944;48.240;16.478;2023-07-09T16:40:56;5.53;;;3.97;;
19593;SDS011;9944;48.240;16.478;2023-07-09T16:45:22;3.15;;;2.63;;
19593;SDS011;9944;48.240;16.478;2023-07-09T16:49:48;3.63;;;2.67;;
19593;SDS011;9944;48.240;16.478;2023-07-09T16:54:12;4.55;;;2.85;;
19593;SDS011;9944;48.240;16.478;2023-07-09T16:58:35;5.93;;;3.97;;
19593;SDS011;9944;48.240;16.478;2023-07-09T17:03:01;4.82;;;2.60;;
19593;SDS011;9944;48.240;16.478;2023-07-09T17:07:28;4.03;;;2.78;;
19593;SDS011;9944;48.240;16.478;2023-07-09T17:11:54;3.10;;;2.80;;
19593;SDS011;9944;48.240;16.478;2023-07-09T17:16:20;3.90;;;2.50;;
19593;SDS011;9944;48.240;16.478;2023-07-09T17:20:44;2.80;;;2.38;;
19593;SDS011;9944;48.240;16.478;2023-07-09T17:29:53;5.32;;;3.47;;
19593;SDS011;9944;48.240;16.478;2023-07-09T17:34:17;3.65;;;2.92;;
19593;SDS011;9944;48.240;16.478;2023-07-09T17:38:41;4.93;;;3.17;;
19593;SDS011;9944;48.240;16.478;2023-07-09T17:43:15;4.00;;;2.50;;
19593;SDS011;9944;48.240;16.478;2023-07-09T17:47:42;3.63;;;2.38;;
19593;SDS011;9944;48.240;16.478;2023-07-09T17:52:07;3.28;;;2.45;;
19593;SDS011;9944;48.240;16.478;2023-07-09T17:56:36;3.45;;;2.80;;
19593;SDS011;9944;48.240;16.478;2023-07-09T18:01:02;2.58;;;2.35;;
19593;SDS011;9944;48.240;16.478;2023-07-09T18:05:28;3.33;;;2.88;;
19593;SDS011;9944;48.240;16.478;2023-07-09T18:09:53;2.88;;;2.38;;
19593;SDS011;9944;48.240;16.478;2023-07-09T18:14:18;7.32;;;3.15;;
19593;SDS011;9944;48.240;16.478;2023-07-09T18:18:45;4.03;;;3.05;;
19593;SDS011;9944;48.240;16.478;2023-07-09T18:23:09;3.50;;;2.88;;
19593;SDS011;9944;48.240;16.478;2023-07-09T18:27:35;4.60;;;3.20;;
19593;SDS011;9944;48.240;16.478;2023-07-09T18:32:01;4.28;;;3.28;;
19593;SDS011;9944;48.240;16.478;2023-07-09T18:36:27;3.22;;;2.88;;
19593;SDS011;9944;48.240;16.478;2023-07-09T18:40:51;3.47;;;2.80;;
19593;SDS011;9944;48.240;16.478;2023-07-09T18:45:17;3.75;;;2.80;;
19593;SDS011;9944;48.240;16.478;2023-07-09T18:49:42;3.40;;;3.10;;
19593;SDS011;9944;48.240;16.478;2023-07-09T18:54:14;3.40;;;2.78;;
19593;SDS011;9944;48.240;16.478;2023-07-09T18:58:39;3.22;;;2.63;;
19593;SDS011;9944;48.240;16.478;2023-07-09T19:03:03;4.20;;;3.28;;
19593;SDS011;9944;48.240;16.478;2023-07-09T19:07:26;3.65;;;2.80;;
19593;SDS011;9944;48.240;16.478;2023-07-09T19:11:52;3.47;;;3.10;;
19593;SDS011;9944;48.240;16.478;2023-07-09T19:16:21;3.60;;;3.08;;
19593;SDS011;9944;48.240;16.478;2023-07-09T19:20:50;5.35;;;3.10;;
19593;SDS011;9944;48.240;16.478;2023-07-09T19:25:16;3.25;;;2.70;;
19593;SDS011;9944;48.240;16.478;2023-07-09T19:29:50;4.10;;;2.90;;
19593;SDS011;9944;48.240;16.478;2023-07-09T19:34:17;2.80;;;2.50;;
19593;SDS011;9944;48.240;16.478;2023-07-09T19:38:47;3.55;;;2.75;;
19593;SDS011;9944;48.240;16.478;2023-07-09T19:43:12;4.30;;;3.20;;
19593;SDS011;9944;48.240;16.478;2023-07-09T19:47:37;2.80;;;2.55;;
19593;SDS011;9944;48.240;16.478;2023-07-09T19:52:01;3.75;;;2.50;;
19593;SDS011;9944;48.240;16.478;2023-07-09T19:56:25;3.65;;;2.97;;
19593;SDS011;9944;48.240;16.478;2023-07-09T20:00:49;4.00;;;2.90;;
19593;SDS011;9944;48.240;16.478;2023-07-09T20:05:15;3.75;;;2.95;;
19593;SDS011;9944;48.240;16.478;2023-07-09T20:09:40;4.78;;;2.90;;
19593;SDS011;9944;48.240;16.478;2023-07-09T20:14:07;3.40;;;2.85;;
19593;SDS011;9944;48.240;16.478;2023-07-09T20:18:35;2.78;;;2.53;;
19593;SDS011;9944;48.240;16.478;2023-07-09T20:23:00;3.55;;;2.88;;
19593;SDS011;9944;48.240;16.478;2023-07-09T20:27:23;5.50;;;2.83;;
19593;SDS011;9944;48.240;16.478;2023-07-09T20:31:48;3.60;;;3.00;;
19593;SDS011;9944;48.240;16.478;2023-07-09T20:36:13;3.53;;;3.03;;
19593;SDS011;9944;48.240;16.478;2023-07-09T20:40:39;3.92;;;2.97;;
19593;SDS011;9944;48.240;16.478;2023-07-09T20:45:06;4.22;;;2.72;;
19593;SDS011;9944;48.240;16.478;2023-07-09T20:49:35;3.65;;;2.95;;
19593;SDS011;9944;48.240;16.478;2023-07-09T20:53:59;4.43;;;2.83;;
19593;SDS011;9944;48.240;16.478;2023-07-09T20:58:25;3.10;;;2.65;;
19593;SDS011;9944;48.240;16.478;2023-07-09T21:02:49;3.15;;;2.70;;
19593;SDS011;9944;48.240;16.478;2023-07-09T21:07:13;3.60;;;3.20;;
19593;SDS011;9944;48.240;16.478;2023-07-09T21:11:37;3.00;;;2.70;;
19593;SDS011;9944;48.240;16.478;2023-07-09T21:16:03;3.53;;;3.22;;
19593;SDS011;9944;48.240;16.478;2023-07-09T21:20:36;3.40;;;3.05;;
19593;SDS011;9944;48.240;16.478;2023-07-09T21:25:00;3.97;;;3.20;;
19593;SDS011;9944;48.240;16.478;2023-07-09T21:29:37;3.40;;;3.05;;
19593;SDS011;9944;48.240;16.478;2023-07-09T21:34:02;8.05;;;3.53;;
19593;SDS011;9944;48.240;16.478;2023-07-09T21:38:25;4.20;;;2.80;;
19593;SDS011;9944;48.240;16.478;2023-07-09T21:42:50;3.67;;;3.10;;
19593;SDS011;9944;48.240;16.478;2023-07-09T21:47:15;4.22;;;3.40;;
19593;SDS011;9944;48.240;16.478;2023-07-09T21:51:41;4.07;;;3.58;;
19593;SDS011;9944;48.240;16.478;2023-07-09T21:56:06;4.20;;;3.42;;
19593;SDS011;9944;48.240;16.478;2023-07-09T22:00:34;4.03;;;3.58;;
19593;SDS011;9944;48.240;16.478;2023-07-09T22:05:12;3.97;;;3.58;;
19593;SDS011;9944;48.240;16.478;2023-07-09T22:09:39;5.53;;;3.40;;
19593;SDS011;9944;48.240;16.478;2023-07-09T22:14:04;5.60;;;3.78;;
19593;SDS011;9944;48.240;16.478;2023-07-09T22:18:37;4.38;;;3.45;;
19593;SDS011;9944;48.240;16.478;2023-07-09T22:23:00;4.22;;;3.53;;
19593;SDS011;9944;48.240;16.478;2023-07-09T22:27:26;4.10;;;3.47;;
19593;SDS011;9944;48.240;16.478;2023-07-09T22:31:50;3.80;;;3.35;;
19593;SDS011;9944;48.240;16.478;2023-07-09T22:36:13;3.33;;;3.00;;
19593;SDS011;9944;48.240;16.478;2023-07-09T22:40:37;4.10;;;3.70;;
19593;SDS011;9944;48.240;16.478;2023-07-09T22:45:03;4.63;;;3.60;;
19593;SDS011;9944;48.240;16.478;2023-07-09T22:49:28;4.72;;;4.03;;
19593;SDS011;9944;48.240;16.478;2023-07-09T22:53:52;4.43;;;3.70;;
19593;SDS011;9944;48.240;16.478;2023-07-09T22:58:16;4.93;;;3.85;;
19593;SDS011;9944;48.240;16.478;2023-07-09T23:02:43;4.38;;;3.80;;
19593;SDS011;9944;48.240;16.478;2023-07-09T23:07:09;4.03;;;3.63;;
19593;SDS011;9944;48.240;16.478;2023-07-09T23:11:34;4.32;;;3.53;;
19593;SDS011;9944;48.240;16.478;2023-07-09T23:16:01;4.30;;;3.90;;
19593;SDS011;9944;48.240;16.478;2023-07-09T23:20:26;5.47;;;3.92;;
19593;SDS011;9944;48.240;16.478;2023-07-09T23:24:50;10.02;;;3.97;;
19593;SDS011;9944;48.240;16.478;2023-07-09T23:29:14;5.72;;;4.10;;
19593;SDS011;9944;48.240;16.478;2023-07-09T23:33:39;8.50;;;4.10;;
19593;SDS011;9944;48.240;16.478;2023-07-09T23:38:06;5.40;;;3.90;;
19593;SDS011;9944;48.240;16.478;2023-07-09T23:42:30;5.93;;;4.38;;
19593;SDS011;9944;48.240;16.478;2023-07-09T23:46:54;5.05;;;3.67;;
19593;SDS011;9944;48.240;16.478;2023-07-09T23:51:19;5.28;;;3.80;;
19593;SDS011;9944;48.240;16.478;2023-07-09T23:55:44;5.45;;;4.43;;
